• Join FlightAware (Why Join?)
  • Login
  • US Flag 
09:31AM EDT


 

Airport Tracker/Info


-or-


 

Live Flight TrackerFlight Track Log ✈ NDU99 ✈ 26-Apr-2013 ✈ KFAR - KGFK

Flight Track Log - Related Links

Times and Time Zones

All times are in EDT time to prevent confusion due to time zone crossing. See the NDU99 flight status page for this flight to view local times or setup timezone preferences in your user account.

Time Position Orientation Groundspeed Altitude Reporting Facility
EDT Latitude Longitude Course Direction KTS MPH feet Rate Location/Type
12:04AM 47.0653 -96.9369 349° North 157 181 4,000  Level Minneapolis Center
12:05AM 47.1067 -96.9497 348° North 158 182 4,000  Level Minneapolis Center
12:06AM 47.1517 -96.9617 350° North 158 182 4,000  Level Minneapolis Center
12:07AM 47.0944 -96.9412 349° North  Level FlightAware Approximate
12:07AM 47.1906 -96.9733 348° North 159 183 4,000  Level Minneapolis Center
12:07AM 47.2078 -96.9797 346° North 159 183 4,000  Level Minneapolis Center
12:08AM 47.1344 -96.9526 349° North  Level FlightAware Approximate
12:08AM 47.2389 -96.9850 353° North 159 183 4,000  Level Minneapolis Center
12:08AM 47.2544 -96.9908 346° North 160 184 4,000  Level Minneapolis Center
12:09AM 47.1744 -96.9640 349° North  Level FlightAware Approximate
12:09AM 47.2842 -96.9983 350° North 158 182 4,000  Level Minneapolis Center
12:09AM 47.2994 -97.0019 351° North 157 181 4,000  Level Minneapolis Center
12:10AM 47.3253 -97.0089 350° North 156 180 4,000  Level Minneapolis Center
12:10AM 47.3400 -97.0139 347° North 156 180 4,000  Level Minneapolis Center
12:11AM 47.3700 -97.0219 350° North 156 180 4,000  Level Minneapolis Center
12:11AM 47.3850 -97.0250 352° North 157 181 4,000  Level Minneapolis Center
12:12AM 47.4119 -97.0333 348° North 159 183 4,000  Level Minneapolis Center
12:12AM 47.4233 -97.0342 357° North 158 182 4,000  Level Minneapolis Center
12:13AM 47.4592 -97.0261 North 163 188 4,000  Level Minneapolis Center
12:13AM 47.4708 -97.0264 359° North 164 189 4,000  Level Minneapolis Center
12:14AM 47.5028 -97.0211 North 163 188 4,000  Level Minneapolis Center
12:14AM 47.5144 -97.0194 North 162 186 4,000  Level Minneapolis Center
12:15AM 47.5489 -97.0139 North 160 184 4,000  Level Minneapolis Center
12:15AM 47.5600 -97.0119 North 161 185 4,000  Level Minneapolis Center
12:16AM 47.5919 -97.0083 North 160 184 4,000  Level Minneapolis Center
12:16AM 47.6139 -97.0064 North 160 184 4,000  Level Minneapolis Center
12:17AM 47.6375 -97.0006 North 159 183 4,000  Level Minneapolis Center
12:17AM 47.6592 -96.9958 North 161 185 4,000  Level Minneapolis Center
12:18AM 47.6844 -96.9928 North 161 185 4,000  Level Minneapolis Center
12:18AM 47.6986 -96.9894 North 161 185 4,000  Level Minneapolis Center
12:19AM 47.7275 -96.9839 North 162 186 4,000  Level Minneapolis Center
12:19AM 47.7461 -96.9817 North 161 185 4,000  Level Minneapolis Center
12:20AM 47.7658 -96.9778 North 160 184 4,000  Level Minneapolis Center
12:20AM 47.7833 -96.9756 North 160 184 4,000  Level Minneapolis Center
12:21AM 47.8092 -96.9786 355° North 158 182 4,000 60 Level Minneapolis Center
12:21AM 47.8258 -96.9808 355° North 156 180 4,100  Climbing Minneapolis Center
12:22AM 47.8525 -96.9819 358° North 156 180 4,000 -120 Descending Minneapolis Center
12:22AM 47.8719 -96.9828 358° North 158 182 4,000  Level Minneapolis Center
12:23AM 47.8956 -96.9850 356° North 156 180 4,000  Level Minneapolis Center
12:23AM 47.9181 -96.9844 North 157 181 4,000  Level Minneapolis Center
12:24AM 47.9489 -96.9872 357° North 158 182 4,000  Level Minneapolis Center
12:24AM 47.9603 -96.9869 North 158 182 4,000 -240 Level Minneapolis Center
12:25AM 47.9931 -96.9881 359° North 159 183 3,800 -300 Descending Minneapolis Center
12:25AM 48.0064 -96.9886 358° North 161 185 3,700 -720 Descending Minneapolis Center
12:26AM 48.0403 -96.9903 358° North 162 186 3,100 -720 Descending Minneapolis Center
12:26AM 48.0528 -96.9903 360° North 172 198 3,000 -120 Descending Minneapolis Center
12:27AM 48.0864 -96.9967 353° North 166 191 3,000 60 Level Minneapolis Center
12:27AM 48.0994 -96.9983 355° North 159 183 3,100  Climbing Minneapolis Center
12:28AM 48.1286 -97.0036 353° North 161 185 3,000 -120 Descending Minneapolis Center
12:28AM 48.1414 -97.0008 North 152 175 3,000 -240 Level Minneapolis Center
12:29AM 48.1678 -97.0064 352° North 154 177 2,800 -120 Descending Minneapolis Center
12:29AM 48.1717 -97.0144 306° West 123 142 2,900 180 Climbing Minneapolis Center
12:30AM 48.1819 -97.0439 298° West 129 148 3,000 180 Climbing Minneapolis Center
12:30AM 48.1792 -97.0572 253° West 96 110 3,100 60 Climbing Minneapolis Center
12:31AM 48.1767 -97.0817 261° West 108 124 3,100 -120 Level Minneapolis Center
12:31AM 48.1689 -97.0900 216° Southwest 93 107 3,000 -120 Descending Minneapolis Center
12:32AM 48.1581 -97.1094 230° Southwest 99 114 3,000  Level Minneapolis Center
12:32AM 48.1472 -97.1094 180° South 95 109 3,000  Level Minneapolis Center
12:33AM 48.1328 -97.1228 212° Southwest 94 108 3,000  Level Minneapolis Center
12:33AM 48.1231 -97.1225 179° South 94 108 3,000 -120 Level Minneapolis Center
12:34AM 48.1078 -97.1336 206° Southwest 94 108 2,900 -240 Descending Minneapolis Center
12:34AM 48.0989 -97.1358 189° South 93 107 2,800 -540 Descending Minneapolis Center
12:35AM 48.0822 -97.1425 195° South 93 107 2,400 -420 Descending Minneapolis Center
12:35AM 48.0744 -97.1431 183° South 90 104 2,400  Level Minneapolis Center
12:36AM 48.0611 -97.1500 199° South 88 101 2,400  Level Minneapolis Center
12:36AM 48.0519 -97.1497 179° South 80 92 2,400  Level Minneapolis Center
12:37AM 48.0386 -97.1575 201° Southwest 84 97 2,400  Level Minneapolis Center
12:37AM 48.0317 -97.1594 191° South 81 93 2,400 -240 Level Minneapolis Center
12:38AM 48.0158 -97.1661 196° South 81 93 2,200 -540 Descending Minneapolis Center
12:38AM 48.0092 -97.1692 197° South 78 90 1,900 -720 Descending Minneapolis Center
12:39AM 47.9964 -97.1711 186° South 80 92 1,500 -420 Descending Minneapolis Center
12:39AM 47.9889 -97.1756 202° Southwest 70 81 1,500 -240 Level Minneapolis Center
12:40AM 47.9786 -97.1803 197° South 75 86 1,300 -300 Descending Minneapolis Center
12:40AM 47.9703 -97.1817 186° South 72 83 1,200 -420 Descending Minneapolis Center
12:41AM 47.9594 -97.1844 190° South 72 83 900 -480 Descending Minneapolis Center